sensor_id;sensor_type;location;lat;lon;timestamp;P1;durP1;ratioP1;P2;durP2;ratioP2
73100;SDS011;61288;53.446;-2.266;2022-08-21T00:01:44;12.48;;;2.90;;
73100;SDS011;61288;53.446;-2.266;2022-08-21T00:04:10;13.57;;;2.83;;
73100;SDS011;61288;53.446;-2.266;2022-08-21T00:06:37;10.43;;;2.45;;
73100;SDS011;61288;53.446;-2.266;2022-08-21T00:09:04;18.13;;;3.15;;
73100;SDS011;61288;53.446;-2.266;2022-08-21T00:11:33;10.57;;;2.75;;
73100;SDS011;61288;53.446;-2.266;2022-08-21T00:14:00;11.65;;;2.78;;
73100;SDS011;61288;53.446;-2.266;2022-08-21T00:16:26;11.35;;;2.55;;
73100;SDS011;61288;53.446;-2.266;2022-08-21T00:18:52;12.80;;;3.17;;
73100;SDS011;61288;53.446;-2.266;2022-08-21T00:21:17;13.48;;;2.90;;
73100;SDS011;61288;53.446;-2.266;2022-08-21T00:23:43;10.75;;;2.53;;
73100;SDS011;61288;53.446;-2.266;2022-08-21T00:26:09;10.38;;;2.72;;
73100;SDS011;61288;53.446;-2.266;2022-08-21T00:28:35;8.48;;;2.17;;
73100;SDS011;61288;53.446;-2.266;2022-08-21T00:31:01;10.57;;;2.13;;
73100;SDS011;61288;53.446;-2.266;2022-08-21T00:33:29;8.40;;;2.33;;
73100;SDS011;61288;53.446;-2.266;2022-08-21T00:35:58;9.63;;;2.30;;
73100;SDS011;61288;53.446;-2.266;2022-08-21T00:38:25;8.55;;;2.38;;
73100;SDS011;61288;53.446;-2.266;2022-08-21T00:40:52;9.63;;;2.05;;
73100;SDS011;61288;53.446;-2.266;2022-08-21T00:43:23;12.70;;;2.58;;
73100;SDS011;61288;53.446;-2.266;2022-08-21T00:45:53;13.32;;;2.65;;
73100;SDS011;61288;53.446;-2.266;2022-08-21T00:48:20;11.15;;;2.40;;
73100;SDS011;61288;53.446;-2.266;2022-08-21T00:50:49;10.85;;;2.72;;
73100;SDS011;61288;53.446;-2.266;2022-08-21T00:53:21;14.38;;;2.88;;
73100;SDS011;61288;53.446;-2.266;2022-08-21T00:55:47;13.55;;;3.17;;
73100;SDS011;61288;53.446;-2.266;2022-08-21T00:58:14;10.80;;;2.95;;
73100;SDS011;61288;53.446;-2.266;2022-08-21T01:00:42;12.35;;;2.40;;
73100;SDS011;61288;53.446;-2.266;2022-08-21T01:03:15;11.88;;;2.90;;
73100;SDS011;61288;53.446;-2.266;2022-08-21T01:05:44;11.35;;;2.78;;
73100;SDS011;61288;53.446;-2.266;2022-08-21T01:08:12;8.35;;;2.70;;
73100;SDS011;61288;53.446;-2.266;2022-08-21T01:10:40;13.13;;;2.80;;
73100;SDS011;61288;53.446;-2.266;2022-08-21T01:13:07;11.82;;;2.92;;
73100;SDS011;61288;53.446;-2.266;2022-08-21T01:15:36;9.82;;;2.60;;
73100;SDS011;61288;53.446;-2.266;2022-08-21T01:18:05;12.35;;;2.83;;
73100;SDS011;61288;53.446;-2.266;2022-08-21T01:20:34;14.00;;;2.53;;
73100;SDS011;61288;53.446;-2.266;2022-08-21T01:23:01;10.55;;;2.83;;
73100;SDS011;61288;53.446;-2.266;2022-08-21T01:25:29;8.02;;;2.47;;
73100;SDS011;61288;53.446;-2.266;2022-08-21T01:27:55;12.85;;;3.20;;
73100;SDS011;61288;53.446;-2.266;2022-08-21T01:30:23;11.25;;;2.85;;
73100;SDS011;61288;53.446;-2.266;2022-08-21T01:32:51;15.30;;;3.00;;
73100;SDS011;61288;53.446;-2.266;2022-08-21T01:35:19;15.20;;;2.90;;
73100;SDS011;61288;53.446;-2.266;2022-08-21T01:37:46;15.52;;;3.33;;
73100;SDS011;61288;53.446;-2.266;2022-08-21T01:40:13;9.05;;;2.72;;
73100;SDS011;61288;53.446;-2.266;2022-08-21T01:42:44;9.95;;;2.92;;
73100;SDS011;61288;53.446;-2.266;2022-08-21T01:45:11;8.77;;;2.50;;
73100;SDS011;61288;53.446;-2.266;2022-08-21T01:47:37;8.43;;;2.47;;
73100;SDS011;61288;53.446;-2.266;2022-08-21T01:50:04;13.05;;;3.10;;
73100;SDS011;61288;53.446;-2.266;2022-08-21T01:52:33;12.15;;;3.00;;
73100;SDS011;61288;53.446;-2.266;2022-08-21T01:54:58;10.63;;;2.97;;
73100;SDS011;61288;53.446;-2.266;2022-08-21T01:57:26;9.55;;;2.83;;
73100;SDS011;61288;53.446;-2.266;2022-08-21T01:59:53;10.10;;;3.35;;
73100;SDS011;61288;53.446;-2.266;2022-08-21T02:02:19;10.13;;;2.38;;
73100;SDS011;61288;53.446;-2.266;2022-08-21T02:04:45;10.88;;;2.80;;
73100;SDS011;61288;53.446;-2.266;2022-08-21T02:07:10;9.65;;;2.95;;
73100;SDS011;61288;53.446;-2.266;2022-08-21T02:09:37;12.93;;;3.00;;
73100;SDS011;61288;53.446;-2.266;2022-08-21T02:12:03;10.38;;;2.58;;
73100;SDS011;61288;53.446;-2.266;2022-08-21T02:14:28;10.73;;;2.60;;
73100;SDS011;61288;53.446;-2.266;2022-08-21T02:16:55;10.63;;;2.90;;
73100;SDS011;61288;53.446;-2.266;2022-08-21T02:19:22;15.68;;;3.17;;
73100;SDS011;61288;53.446;-2.266;2022-08-21T02:21:49;10.98;;;2.80;;
73100;SDS011;61288;53.446;-2.266;2022-08-21T02:24:15;8.73;;;2.83;;
73100;SDS011;61288;53.446;-2.266;2022-08-21T02:26:40;9.25;;;2.38;;
73100;SDS011;61288;53.446;-2.266;2022-08-21T02:29:06;11.63;;;3.03;;
73100;SDS011;61288;53.446;-2.266;2022-08-21T02:31:32;11.38;;;2.50;;
73100;SDS011;61288;53.446;-2.266;2022-08-21T02:33:58;11.80;;;2.72;;
73100;SDS011;61288;53.446;-2.266;2022-08-21T02:36:25;13.27;;;2.78;;
73100;SDS011;61288;53.446;-2.266;2022-08-21T02:38:58;12.55;;;3.08;;
73100;SDS011;61288;53.446;-2.266;2022-08-21T02:41:24;10.02;;;2.80;;
73100;SDS011;61288;53.446;-2.266;2022-08-21T02:43:50;12.25;;;2.85;;
73100;SDS011;61288;53.446;-2.266;2022-08-21T02:46:16;11.23;;;2.60;;
73100;SDS011;61288;53.446;-2.266;2022-08-21T02:48:45;12.15;;;2.90;;
73100;SDS011;61288;53.446;-2.266;2022-08-21T02:51:12;13.70;;;3.30;;
73100;SDS011;61288;53.446;-2.266;2022-08-21T02:53:43;14.05;;;3.17;;
73100;SDS011;61288;53.446;-2.266;2022-08-21T02:56:17;13.48;;;3.30;;
73100;SDS011;61288;53.446;-2.266;2022-08-21T02:58:48;14.15;;;2.80;;
73100;SDS011;61288;53.446;-2.266;2022-08-21T03:01:16;11.50;;;3.40;;
73100;SDS011;61288;53.446;-2.266;2022-08-21T03:03:47;13.82;;;3.60;;
73100;SDS011;61288;53.446;-2.266;2022-08-21T03:06:16;11.95;;;2.83;;
73100;SDS011;61288;53.446;-2.266;2022-08-21T03:08:46;13.88;;;3.15;;
73100;SDS011;61288;53.446;-2.266;2022-08-21T03:11:12;15.18;;;3.25;;
73100;SDS011;61288;53.446;-2.266;2022-08-21T03:13:39;12.55;;;3.13;;
73100;SDS011;61288;53.446;-2.266;2022-08-21T03:16:06;11.18;;;3.38;;
73100;SDS011;61288;53.446;-2.266;2022-08-21T03:18:32;13.73;;;3.55;;
73100;SDS011;61288;53.446;-2.266;2022-08-21T03:20:59;12.63;;;3.38;;
73100;SDS011;61288;53.446;-2.266;2022-08-21T03:23:25;11.05;;;3.40;;
73100;SDS011;61288;53.446;-2.266;2022-08-21T03:25:50;17.27;;;3.40;;
73100;SDS011;61288;53.446;-2.266;2022-08-21T03:28:19;12.52;;;3.60;;
73100;SDS011;61288;53.446;-2.266;2022-08-21T03:30:47;13.95;;;3.72;;
73100;SDS011;61288;53.446;-2.266;2022-08-21T03:33:14;13.05;;;3.55;;
73100;SDS011;61288;53.446;-2.266;2022-08-21T03:35:44;11.18;;;3.50;;
73100;SDS011;61288;53.446;-2.266;2022-08-21T03:38:15;12.10;;;3.35;;
73100;SDS011;61288;53.446;-2.266;2022-08-21T03:40:41;11.32;;;3.90;;
73100;SDS011;61288;53.446;-2.266;2022-08-21T03:43:07;13.98;;;3.85;;
73100;SDS011;61288;53.446;-2.266;2022-08-21T03:45:34;12.07;;;3.30;;
73100;SDS011;61288;53.446;-2.266;2022-08-21T03:48:01;16.95;;;3.60;;
73100;SDS011;61288;53.446;-2.266;2022-08-21T03:50:30;12.93;;;3.42;;
73100;SDS011;61288;53.446;-2.266;2022-08-21T03:52:57;12.75;;;3.50;;
73100;SDS011;61288;53.446;-2.266;2022-08-21T03:55:23;10.90;;;3.38;;
73100;SDS011;61288;53.446;-2.266;2022-08-21T03:57:51;13.68;;;3.67;;
73100;SDS011;61288;53.446;-2.266;2022-08-21T04:00:17;15.80;;;4.43;;
73100;SDS011;61288;53.446;-2.266;2022-08-21T04:02:44;16.17;;;3.92;;
73100;SDS011;61288;53.446;-2.266;2022-08-21T04:05:11;13.07;;;3.58;;
73100;SDS011;61288;53.446;-2.266;2022-08-21T04:07:39;14.90;;;3.83;;
73100;SDS011;61288;53.446;-2.266;2022-08-21T04:10:05;12.05;;;3.80;;
73100;SDS011;61288;53.446;-2.266;2022-08-21T04:12:32;13.93;;;4.03;;
73100;SDS011;61288;53.446;-2.266;2022-08-21T04:14:58;12.70;;;3.70;;
73100;SDS011;61288;53.446;-2.266;2022-08-21T04:17:24;14.30;;;3.30;;
73100;SDS011;61288;53.446;-2.266;2022-08-21T04:19:49;16.45;;;4.13;;
73100;SDS011;61288;53.446;-2.266;2022-08-21T04:22:15;16.63;;;4.50;;
73100;SDS011;61288;53.446;-2.266;2022-08-21T04:24:41;14.63;;;4.28;;
73100;SDS011;61288;53.446;-2.266;2022-08-21T04:27:07;12.63;;;4.10;;
73100;SDS011;61288;53.446;-2.266;2022-08-21T04:29:33;11.07;;;3.45;;
73100;SDS011;61288;53.446;-2.266;2022-08-21T04:31:59;12.20;;;3.13;;
73100;SDS011;61288;53.446;-2.266;2022-08-21T04:34:24;12.45;;;3.17;;
73100;SDS011;61288;53.446;-2.266;2022-08-21T04:36:50;9.60;;;2.95;;
73100;SDS011;61288;53.446;-2.266;2022-08-21T04:39:16;13.45;;;3.88;;
73100;SDS011;61288;53.446;-2.266;2022-08-21T04:41:41;13.32;;;2.75;;
73100;SDS011;61288;53.446;-2.266;2022-08-21T04:44:07;14.05;;;3.58;;
73100;SDS011;61288;53.446;-2.266;2022-08-21T04:46:33;11.25;;;2.90;;
73100;SDS011;61288;53.446;-2.266;2022-08-21T04:48:59;13.52;;;2.95;;
73100;SDS011;61288;53.446;-2.266;2022-08-21T04:51:29;12.45;;;2.67;;
73100;SDS011;61288;53.446;-2.266;2022-08-21T04:54:05;11.82;;;2.55;;
73100;SDS011;61288;53.446;-2.266;2022-08-21T04:59:16;15.80;;;2.58;;
73100;SDS011;61288;53.446;-2.266;2022-08-21T05:01:47;12.00;;;2.83;;
73100;SDS011;61288;53.446;-2.266;2022-08-21T05:04:15;9.85;;;2.35;;
73100;SDS011;61288;53.446;-2.266;2022-08-21T05:06:47;13.43;;;2.70;;
73100;SDS011;61288;53.446;-2.266;2022-08-21T05:09:15;10.45;;;2.22;;
73100;SDS011;61288;53.446;-2.266;2022-08-21T05:11:43;10.25;;;2.42;;
73100;SDS011;61288;53.446;-2.266;2022-08-21T05:20:01;15.00;;;2.73;;
73100;SDS011;61288;53.446;-2.266;2022-08-21T05:22:28;10.07;;;2.53;;
73100;SDS011;61288;53.446;-2.266;2022-08-21T05:24:54;12.40;;;2.08;;
73100;SDS011;61288;53.446;-2.266;2022-08-21T05:27:19;11.07;;;2.47;;
73100;SDS011;61288;53.446;-2.266;2022-08-21T05:29:45;9.38;;;2.08;;
73100;SDS011;61288;53.446;-2.266;2022-08-21T05:32:12;11.43;;;2.38;;
73100;SDS011;61288;53.446;-2.266;2022-08-21T05:34:38;9.48;;;2.10;;
73100;SDS011;61288;53.446;-2.266;2022-08-21T05:37:04;8.95;;;2.00;;
73100;SDS011;61288;53.446;-2.266;2022-08-21T05:39:30;11.65;;;2.70;;
73100;SDS011;61288;53.446;-2.266;2022-08-21T05:41:56;9.40;;;1.90;;
73100;SDS011;61288;53.446;-2.266;2022-08-21T05:44:22;7.93;;;1.98;;
73100;SDS011;61288;53.446;-2.266;2022-08-21T05:46:48;9.20;;;1.92;;
73100;SDS011;61288;53.446;-2.266;2022-08-21T05:49:13;8.48;;;2.05;;
73100;SDS011;61288;53.446;-2.266;2022-08-21T05:51:40;13.43;;;2.53;;
73100;SDS011;61288;53.446;-2.266;2022-08-21T05:54:06;11.63;;;2.58;;
73100;SDS011;61288;53.446;-2.266;2022-08-21T05:56:32;15.52;;;2.70;;
73100;SDS011;61288;53.446;-2.266;2022-08-21T05:59:00;8.48;;;2.10;;
73100;SDS011;61288;53.446;-2.266;2022-08-21T06:01:28;9.70;;;2.08;;
73100;SDS011;61288;53.446;-2.266;2022-08-21T06:03:57;10.13;;;2.33;;
73100;SDS011;61288;53.446;-2.266;2022-08-21T06:06:22;9.90;;;2.15;;
73100;SDS011;61288;53.446;-2.266;2022-08-21T06:08:48;10.50;;;2.25;;
73100;SDS011;61288;53.446;-2.266;2022-08-21T06:11:18;10.82;;;2.33;;
73100;SDS011;61288;53.446;-2.266;2022-08-21T06:13:43;12.50;;;2.05;;
73100;SDS011;61288;53.446;-2.266;2022-08-21T06:16:13;10.65;;;2.08;;
73100;SDS011;61288;53.446;-2.266;2022-08-21T06:18:41;13.50;;;1.90;;
73100;SDS011;61288;53.446;-2.266;2022-08-21T06:21:08;8.55;;;1.85;;
73100;SDS011;61288;53.446;-2.266;2022-08-21T06:23:34;11.30;;;2.10;;
73100;SDS011;61288;53.446;-2.266;2022-08-21T06:26:03;11.13;;;2.30;;
73100;SDS011;61288;53.446;-2.266;2022-08-21T06:28:29;12.55;;;2.28;;
73100;SDS011;61288;53.446;-2.266;2022-08-21T06:30:56;11.80;;;2.20;;
73100;SDS011;61288;53.446;-2.266;2022-08-21T06:33:22;8.20;;;2.13;;
73100;SDS011;61288;53.446;-2.266;2022-08-21T06:35:49;8.63;;;1.90;;
73100;SDS011;61288;53.446;-2.266;2022-08-21T06:38:15;9.90;;;1.98;;
73100;SDS011;61288;53.446;-2.266;2022-08-21T06:40:40;9.38;;;2.40;;
73100;SDS011;61288;53.446;-2.266;2022-08-21T06:43:12;7.80;;;1.92;;
73100;SDS011;61288;53.446;-2.266;2022-08-21T06:45:39;8.93;;;2.30;;
73100;SDS011;61288;53.446;-2.266;2022-08-21T06:48:05;9.82;;;2.60;;
73100;SDS011;61288;53.446;-2.266;2022-08-21T06:50:32;9.57;;;2.35;;
73100;SDS011;61288;53.446;-2.266;2022-08-21T06:52:59;10.52;;;1.92;;
73100;SDS011;61288;53.446;-2.266;2022-08-21T06:55:30;11.35;;;1.80;;
73100;SDS011;61288;53.446;-2.266;2022-08-21T06:57:56;8.50;;;1.80;;
73100;SDS011;61288;53.446;-2.266;2022-08-21T07:00:23;8.95;;;1.65;;
73100;SDS011;61288;53.446;-2.266;2022-08-21T07:02:50;10.23;;;1.92;;
73100;SDS011;61288;53.446;-2.266;2022-08-21T07:05:16;13.80;;;2.17;;
73100;SDS011;61288;53.446;-2.266;2022-08-21T07:07:42;8.52;;;1.80;;
73100;SDS011;61288;53.446;-2.266;2022-08-21T07:10:08;11.25;;;1.90;;
73100;SDS011;61288;53.446;-2.266;2022-08-21T07:12:34;10.02;;;2.25;;
73100;SDS011;61288;53.446;-2.266;2022-08-21T07:14:59;13.57;;;2.00;;
73100;SDS011;61288;53.446;-2.266;2022-08-21T07:17:25;14.63;;;2.13;;
73100;SDS011;61288;53.446;-2.266;2022-08-21T07:19:51;10.95;;;2.15;;
73100;SDS011;61288;53.446;-2.266;2022-08-21T07:22:17;9.40;;;1.80;;
73100;SDS011;61288;53.446;-2.266;2022-08-21T07:24:45;11.00;;;1.80;;
73100;SDS011;61288;53.446;-2.266;2022-08-21T07:27:12;7.72;;;1.88;;
73100;SDS011;61288;53.446;-2.266;2022-08-21T07:29:37;9.55;;;1.73;;
73100;SDS011;61288;53.446;-2.266;2022-08-21T07:32:04;9.45;;;2.03;;
73100;SDS011;61288;53.446;-2.266;2022-08-21T07:34:30;12.18;;;1.58;;
73100;SDS011;61288;53.446;-2.266;2022-08-21T07:36:56;9.65;;;1.88;;
73100;SDS011;61288;53.446;-2.266;2022-08-21T07:39:24;12.68;;;2.15;;
73100;SDS011;61288;53.446;-2.266;2022-08-21T07:41:50;14.15;;;1.80;;
73100;SDS011;61288;53.446;-2.266;2022-08-21T07:44:16;15.75;;;2.10;;
73100;SDS011;61288;53.446;-2.266;2022-08-21T07:46:42;12.65;;;1.98;;
73100;SDS011;61288;53.446;-2.266;2022-08-21T07:49:07;13.70;;;1.67;;
73100;SDS011;61288;53.446;-2.266;2022-08-21T07:51:33;8.82;;;1.60;;
73100;SDS011;61288;53.446;-2.266;2022-08-21T07:53:59;11.75;;;1.80;;
73100;SDS011;61288;53.446;-2.266;2022-08-21T07:56:26;9.98;;;2.00;;
73100;SDS011;61288;53.446;-2.266;2022-08-21T07:58:52;9.77;;;1.85;;
73100;SDS011;61288;53.446;-2.266;2022-08-21T08:01:18;9.35;;;1.80;;
73100;SDS011;61288;53.446;-2.266;2022-08-21T08:03:44;9.10;;;1.80;;
73100;SDS011;61288;53.446;-2.266;2022-08-21T08:06:10;9.32;;;1.73;;
73100;SDS011;61288;53.446;-2.266;2022-08-21T08:08:38;8.98;;;1.98;;
73100;SDS011;61288;53.446;-2.266;2022-08-21T08:11:04;8.98;;;2.33;;
73100;SDS011;61288;53.446;-2.266;2022-08-21T08:13:30;9.50;;;1.77;;
73100;SDS011;61288;53.446;-2.266;2022-08-21T08:15:56;9.80;;;1.67;;
73100;SDS011;61288;53.446;-2.266;2022-08-21T08:18:21;11.18;;;2.45;;
73100;SDS011;61288;53.446;-2.266;2022-08-21T08:20:47;11.38;;;1.90;;
73100;SDS011;61288;53.446;-2.266;2022-08-21T08:23:13;10.38;;;1.70;;
73100;SDS011;61288;53.446;-2.266;2022-08-21T08:25:39;10.63;;;1.77;;
73100;SDS011;61288;53.446;-2.266;2022-08-21T08:28:05;11.15;;;2.20;;
73100;SDS011;61288;53.446;-2.266;2022-08-21T08:30:31;13.13;;;1.85;;
73100;SDS011;61288;53.446;-2.266;2022-08-21T08:32:57;9.50;;;1.85;;
73100;SDS011;61288;53.446;-2.266;2022-08-21T08:35:24;9.70;;;1.65;;
73100;SDS011;61288;53.446;-2.266;2022-08-21T08:37:50;9.88;;;1.60;;
73100;SDS011;61288;53.446;-2.266;2022-08-21T08:40:40;10.63;;;1.75;;
73100;SDS011;61288;53.446;-2.266;2022-08-21T08:43:11;9.35;;;1.60;;
73100;SDS011;61288;53.446;-2.266;2022-08-21T08:45:39;9.27;;;1.80;;
73100;SDS011;61288;53.446;-2.266;2022-08-21T08:48:09;7.95;;;1.48;;
73100;SDS011;61288;53.446;-2.266;2022-08-21T08:50:54;8.93;;;1.60;;
73100;SDS011;61288;53.446;-2.266;2022-08-21T08:53:23;9.75;;;1.70;;
73100;SDS011;61288;53.446;-2.266;2022-08-21T08:55:56;11.80;;;1.90;;
73100;SDS011;61288;53.446;-2.266;2022-08-21T08:58:27;5.68;;;1.40;;
73100;SDS011;61288;53.446;-2.266;2022-08-21T09:00:56;9.10;;;1.50;;
73100;SDS011;61288;53.446;-2.266;2022-08-21T09:03:24;7.45;;;1.60;;
73100;SDS011;61288;53.446;-2.266;2022-08-21T09:08:30;10.50;;;1.60;;
73100;SDS011;61288;53.446;-2.266;2022-08-21T09:11:10;10.52;;;1.75;;
73100;SDS011;61288;53.446;-2.266;2022-08-21T09:13:50;9.02;;;1.40;;
73100;SDS011;61288;53.446;-2.266;2022-08-21T09:19:16;6.88;;;1.25;;
73100;SDS011;61288;53.446;-2.266;2022-08-21T09:21:55;6.40;;;1.83;;
73100;SDS011;61288;53.446;-2.266;2022-08-21T09:25:34;11.20;;;1.50;;
73100;SDS011;61288;53.446;-2.266;2022-08-21T09:27:27;8.35;;;1.88;;
73100;SDS011;61288;53.446;-2.266;2022-08-21T09:29:54;9.15;;;1.63;;
73100;SDS011;61288;53.446;-2.266;2022-08-21T09:32:25;6.70;;;1.50;;
73100;SDS011;61288;53.446;-2.266;2022-08-21T09:35:16;6.82;;;1.35;;
73100;SDS011;61288;53.446;-2.266;2022-08-21T09:45:40;7.30;;;1.70;;
73100;SDS011;61288;53.446;-2.266;2022-08-21T09:48:23;9.15;;;1.30;;
73100;SDS011;61288;53.446;-2.266;2022-08-21T09:50:51;8.88;;;1.38;;
73100;SDS011;61288;53.446;-2.266;2022-08-21T09:53:22;8.15;;;1.50;;
73100;SDS011;61288;53.446;-2.266;2022-08-21T09:55:53;9.20;;;1.38;;
73100;SDS011;61288;53.446;-2.266;2022-08-21T09:58:39;10.40;;;1.42;;
73100;SDS011;61288;53.446;-2.266;2022-08-21T10:01:11;9.07;;;1.52;;
73100;SDS011;61288;53.446;-2.266;2022-08-21T10:03:43;8.32;;;1.35;;
73100;SDS011;61288;53.446;-2.266;2022-08-21T10:06:09;10.30;;;1.75;;
73100;SDS011;61288;53.446;-2.266;2022-08-21T10:08:46;6.30;;;1.67;;
73100;SDS011;61288;53.446;-2.266;2022-08-21T10:11:13;7.25;;;1.77;;
73100;SDS011;61288;53.446;-2.266;2022-08-21T10:13:54;6.38;;;1.73;;
73100;SDS011;61288;53.446;-2.266;2022-08-21T10:16:32;11.38;;;1.83;;
73100;SDS011;61288;53.446;-2.266;2022-08-21T10:19:47;7.13;;;1.58;;
73100;SDS011;61288;53.446;-2.266;2022-08-21T10:25:08;8.63;;;1.50;;
73100;SDS011;61288;53.446;-2.266;2022-08-21T10:30:25;7.50;;;1.52;;
73100;SDS011;61288;53.446;-2.266;2022-08-21T10:33:08;8.30;;;1.77;;
73100;SDS011;61288;53.446;-2.266;2022-08-21T10:54:41;9.07;;;1.80;;
73100;SDS011;61288;53.446;-2.266;2022-08-21T10:57:19;9.32;;;1.80;;
73100;SDS011;61288;53.446;-2.266;2022-08-21T11:00:00;9.00;;;1.50;;
73100;SDS011;61288;53.446;-2.266;2022-08-21T11:05:33;7.18;;;1.40;;
73100;SDS011;61288;53.446;-2.266;2022-08-21T11:08:07;5.13;;;1.48;;
73100;SDS011;61288;53.446;-2.266;2022-08-21T11:10:52;6.28;;;1.58;;
73100;SDS011;61288;53.446;-2.266;2022-08-21T11:16:51;6.00;;;1.35;;
73100;SDS011;61288;53.446;-2.266;2022-08-21T11:22:13;5.35;;;1.60;;
73100;SDS011;61288;53.446;-2.266;2022-08-21T11:30:05;4.70;;;1.35;;
73100;SDS011;61288;53.446;-2.266;2022-08-21T11:38:50;6.38;;;1.70;;
73100;SDS011;61288;53.446;-2.266;2022-08-21T11:47:46;4.88;;;1.70;;
73100;SDS011;61288;53.446;-2.266;2022-08-21T11:50:21;6.95;;;1.50;;
73100;SDS011;61288;53.446;-2.266;2022-08-21T11:52:57;5.72;;;1.60;;
73100;SDS011;61288;53.446;-2.266;2022-08-21T11:58:22;5.65;;;1.65;;
73100;SDS011;61288;53.446;-2.266;2022-08-21T12:00:56;7.22;;;1.50;;
73100;SDS011;61288;53.446;-2.266;2022-08-21T12:03:30;5.75;;;1.50;;
73100;SDS011;61288;53.446;-2.266;2022-08-21T12:06:04;9.25;;;1.70;;
73100;SDS011;61288;53.446;-2.266;2022-08-21T12:08:37;5.05;;;1.50;;
73100;SDS011;61288;53.446;-2.266;2022-08-21T12:13:52;6.55;;;1.63;;
73100;SDS011;61288;53.446;-2.266;2022-08-21T12:16:33;8.63;;;1.55;;
73100;SDS011;61288;53.446;-2.266;2022-08-21T12:27:26;6.07;;;1.58;;
73100;SDS011;61288;53.446;-2.266;2022-08-21T12:30:06;5.82;;;1.70;;
73100;SDS011;61288;53.446;-2.266;2022-08-21T12:32:53;6.28;;;1.55;;
73100;SDS011;61288;53.446;-2.266;2022-08-21T12:35:21;5.90;;;1.58;;
73100;SDS011;61288;53.446;-2.266;2022-08-21T12:43:26;5.50;;;1.50;;
73100;SDS011;61288;53.446;-2.266;2022-08-21T12:45:53;6.72;;;1.50;;
73100;SDS011;61288;53.446;-2.266;2022-08-21T12:48:26;5.78;;;1.55;;
73100;SDS011;61288;53.446;-2.266;2022-08-21T12:50:58;5.95;;;1.50;;
73100;SDS011;61288;53.446;-2.266;2022-08-21T12:53:45;4.93;;;1.40;;
73100;SDS011;61288;53.446;-2.266;2022-08-21T12:58:51;9.45;;;1.80;;
73100;SDS011;61288;53.446;-2.266;2022-08-21T13:01:22;8.18;;;1.70;;
73100;SDS011;61288;53.446;-2.266;2022-08-21T13:03:49;6.00;;;1.35;;
73100;SDS011;61288;53.446;-2.266;2022-08-21T13:06:18;8.88;;;1.60;;
73100;SDS011;61288;53.446;-2.266;2022-08-21T13:08:46;5.55;;;1.50;;
73100;SDS011;61288;53.446;-2.266;2022-08-21T13:11:18;8.48;;;1.67;;
73100;SDS011;61288;53.446;-2.266;2022-08-21T13:13:50;5.68;;;1.42;;
73100;SDS011;61288;53.446;-2.266;2022-08-21T13:16:19;7.78;;;1.52;;
73100;SDS011;61288;53.446;-2.266;2022-08-21T13:18:55;5.18;;;1.67;;
73100;SDS011;61288;53.446;-2.266;2022-08-21T13:21:31;6.78;;;1.50;;
73100;SDS011;61288;53.446;-2.266;2022-08-21T13:26:45;6.43;;;1.50;;
73100;SDS011;61288;53.446;-2.266;2022-08-21T13:29:12;5.03;;;1.50;;
73100;SDS011;61288;53.446;-2.266;2022-08-21T13:31:40;6.72;;;1.50;;
73100;SDS011;61288;53.446;-2.266;2022-08-21T13:34:35;7.53;;;1.65;;
73100;SDS011;61288;53.446;-2.266;2022-08-21T13:37:07;6.45;;;1.60;;
73100;SDS011;61288;53.446;-2.266;2022-08-21T13:39:36;5.00;;;1.50;;
73100;SDS011;61288;53.446;-2.266;2022-08-21T13:42:03;6.80;;;1.50;;
73100;SDS011;61288;53.446;-2.266;2022-08-21T13:44:39;6.70;;;1.60;;
73100;SDS011;61288;53.446;-2.266;2022-08-21T13:47:11;7.13;;;1.70;;
73100;SDS011;61288;53.446;-2.266;2022-08-21T13:49:42;7.00;;;1.40;;
73100;SDS011;61288;53.446;-2.266;2022-08-21T13:52:15;7.10;;;1.80;;
73100;SDS011;61288;53.446;-2.266;2022-08-21T13:54:42;6.97;;;1.88;;
73100;SDS011;61288;53.446;-2.266;2022-08-21T13:57:17;5.28;;;1.48;;
73100;SDS011;61288;53.446;-2.266;2022-08-21T13:59:44;5.88;;;1.70;;
73100;SDS011;61288;53.446;-2.266;2022-08-21T14:02:20;8.68;;;2.10;;
73100;SDS011;61288;53.446;-2.266;2022-08-21T14:04:54;6.30;;;1.67;;
73100;SDS011;61288;53.446;-2.266;2022-08-21T14:07:33;7.82;;;1.80;;
73100;SDS011;61288;53.446;-2.266;2022-08-21T14:10:16;8.18;;;1.67;;
73100;SDS011;61288;53.446;-2.266;2022-08-21T14:12:46;6.50;;;1.52;;
73100;SDS011;61288;53.446;-2.266;2022-08-21T14:15:26;6.30;;;1.60;;
73100;SDS011;61288;53.446;-2.266;2022-08-21T14:17:54;7.35;;;1.63;;
73100;SDS011;61288;53.446;-2.266;2022-08-21T14:20:33;4.93;;;1.40;;
73100;SDS011;61288;53.446;-2.266;2022-08-21T14:23:00;8.95;;;2.08;;
73100;SDS011;61288;53.446;-2.266;2022-08-21T14:25:44;7.35;;;1.63;;
73100;SDS011;61288;53.446;-2.266;2022-08-21T14:28:13;7.65;;;1.73;;
73100;SDS011;61288;53.446;-2.266;2022-08-21T14:30:48;6.22;;;1.40;;
73100;SDS011;61288;53.446;-2.266;2022-08-21T14:33:22;6.45;;;1.55;;
73100;SDS011;61288;53.446;-2.266;2022-08-21T14:35:54;6.78;;;1.55;;
73100;SDS011;61288;53.446;-2.266;2022-08-21T14:38:21;7.25;;;1.88;;
73100;SDS011;61288;53.446;-2.266;2022-08-21T14:40:51;7.60;;;1.52;;
73100;SDS011;61288;53.446;-2.266;2022-08-21T14:43:38;6.38;;;1.50;;
73100;SDS011;61288;53.446;-2.266;2022-08-21T14:46:04;5.78;;;1.38;;
73100;SDS011;61288;53.446;-2.266;2022-08-21T14:48:29;8.55;;;1.63;;
73100;SDS011;61288;53.446;-2.266;2022-08-21T14:50:55;6.15;;;1.70;;
73100;SDS011;61288;53.446;-2.266;2022-08-21T14:53:21;6.45;;;1.90;;
73100;SDS011;61288;53.446;-2.266;2022-08-21T14:55:47;7.38;;;1.75;;
73100;SDS011;61288;53.446;-2.266;2022-08-21T14:58:32;6.07;;;1.50;;
73100;SDS011;61288;53.446;-2.266;2022-08-21T15:01:00;6.95;;;1.60;;
73100;SDS011;61288;53.446;-2.266;2022-08-21T15:03:28;9.00;;;1.70;;
73100;SDS011;61288;53.446;-2.266;2022-08-21T15:05:54;7.28;;;1.63;;
73100;SDS011;61288;53.446;-2.266;2022-08-21T15:08:20;9.07;;;1.67;;
73100;SDS011;61288;53.446;-2.266;2022-08-21T15:10:46;7.45;;;1.90;;
73100;SDS011;61288;53.446;-2.266;2022-08-21T15:13:12;8.32;;;1.52;;
73100;SDS011;61288;53.446;-2.266;2022-08-21T15:15:40;5.30;;;1.67;;
73100;SDS011;61288;53.446;-2.266;2022-08-21T15:18:09;6.25;;;1.60;;
73100;SDS011;61288;53.446;-2.266;2022-08-21T15:20:34;11.07;;;1.83;;
73100;SDS011;61288;53.446;-2.266;2022-08-21T15:23:01;7.22;;;1.52;;
73100;SDS011;61288;53.446;-2.266;2022-08-21T15:25:27;6.13;;;1.60;;
73100;SDS011;61288;53.446;-2.266;2022-08-21T15:27:53;6.82;;;1.98;;
73100;SDS011;61288;53.446;-2.266;2022-08-21T15:30:18;6.22;;;1.48;;
73100;SDS011;61288;53.446;-2.266;2022-08-21T15:32:44;5.90;;;1.50;;
73100;SDS011;61288;53.446;-2.266;2022-08-21T15:35:10;8.30;;;1.65;;
73100;SDS011;61288;53.446;-2.266;2022-08-21T15:37:35;6.82;;;1.70;;
73100;SDS011;61288;53.446;-2.266;2022-08-21T15:40:05;6.25;;;1.75;;
73100;SDS011;61288;53.446;-2.266;2022-08-21T15:42:32;5.70;;;1.85;;
73100;SDS011;61288;53.446;-2.266;2022-08-21T15:44:59;7.90;;;1.63;;
73100;SDS011;61288;53.446;-2.266;2022-08-21T15:47:26;8.25;;;1.95;;
73100;SDS011;61288;53.446;-2.266;2022-08-21T15:49:56;5.78;;;1.38;;
73100;SDS011;61288;53.446;-2.266;2022-08-21T15:52:21;5.15;;;1.50;;
73100;SDS011;61288;53.446;-2.266;2022-08-21T15:54:48;6.72;;;1.77;;
73100;SDS011;61288;53.446;-2.266;2022-08-21T15:57:15;5.57;;;1.50;;
73100;SDS011;61288;53.446;-2.266;2022-08-21T15:59:46;8.32;;;1.70;;
73100;SDS011;61288;53.446;-2.266;2022-08-21T16:02:15;8.50;;;1.75;;
73100;SDS011;61288;53.446;-2.266;2022-08-21T16:04:45;6.18;;;1.55;;
73100;SDS011;61288;53.446;-2.266;2022-08-21T16:07:13;8.77;;;1.90;;
73100;SDS011;61288;53.446;-2.266;2022-08-21T16:09:40;8.82;;;1.90;;
73100;SDS011;61288;53.446;-2.266;2022-08-21T16:12:06;6.07;;;1.33;;
73100;SDS011;61288;53.446;-2.266;2022-08-21T16:14:33;6.65;;;1.73;;
73100;SDS011;61288;53.446;-2.266;2022-08-21T16:17:01;4.95;;;1.52;;
73100;SDS011;61288;53.446;-2.266;2022-08-21T16:19:29;4.63;;;1.35;;